ENSE

Snorre A Oilp

Snorre A Oilp, Norway
METAR ENSE 211520Z AUTO 22013KT 9999NDV BKN032/// BKN038/// 09/06 Q1018 W///S4
Observed Flight Rules
Apr-21 @ 15:20 UTC (13 minutes ago)
Wind Clouds
220° at 13 knots
  • Broken at 3,200' AGL
  • Broken at 3,800' AGL
Temperatures Readings
Current 9°C / 48°F
Dewpoint 6°C / 43°F
Humidity 82%
Altimeter 30.06" Hg
Pressure 1018 hPa
Elevation 10
METAR ENSE 211520Z AUTO 22013KT 9999NDV BKN032/// BKN038/// 09/06 Q1018 W///S4
Observed Flight Rules
Apr-21 @ 15:20 UTC
(13 minutes ago)
Wind
220° at 13 knots
Clouds
  • Broken at 3,200' AGL
  • Broken at 3,800' AGL
Temperature Dewpoint
9°C / 48°F 6°C / 43°F
Humidity Altimeter Pressure
82% 30.06" Hg 1018 hPa